createdAt,value
2023-03-13T00:00:46.860Z,97387.28
2023-03-13T00:03:13.004Z,97381.13
2023-03-13T00:05:39.185Z,97373.16
2023-03-13T00:08:05.341Z,97375.81
2023-03-13T00:10:31.466Z,97368.84
2023-03-13T00:12:57.591Z,97356.34
2023-03-13T00:15:23.744Z,97359.84
2023-03-13T00:17:49.841Z,97344.88
2023-03-13T00:20:15.937Z,97335.03
2023-03-13T00:22:42.054Z,97329.72
2023-03-13T00:25:08.139Z,97328.91
2023-03-13T00:27:34.270Z,97324.41
2023-03-13T00:30:00.456Z,97309.03
2023-03-13T00:32:26.639Z,97303.94
2023-03-13T00:34:52.797Z,97298.63
2023-03-13T00:37:18.925Z,97294.31
2023-03-13T00:39:45.021Z,97282.63
2023-03-13T00:42:11.121Z,97301.03
2023-03-13T00:44:37.234Z,97286.09
2023-03-13T00:47:03.398Z,97297.56
2023-03-13T00:49:29.483Z,97284.25
2023-03-13T00:51:55.712Z,97286.91
2023-03-13T00:54:21.876Z,97276.28
2023-03-13T00:56:47.984Z,97277.31
2023-03-13T00:59:14.104Z,97265.63
2023-03-13T01:01:40.219Z,97264.00
2023-03-13T01:04:06.328Z,97248.84
2023-03-13T01:06:32.474Z,97250.69
2023-03-13T01:08:58.568Z,97241.66
2023-03-13T01:11:24.737Z,97253.13
2023-03-13T01:13:50.889Z,97244.31
2023-03-13T01:16:17.112Z,97233.66
2023-03-13T01:18:43.296Z,97243.28
2023-03-13T01:21:09.402Z,97223.03
2023-03-13T01:23:35.502Z,97223.03
2023-03-13T01:26:01.609Z,97227.53
2023-03-13T01:28:27.771Z,97192.13
2023-03-13T01:30:53.919Z,97205.44
2023-03-13T01:33:20.057Z,97197.22
2023-03-13T01:35:46.324Z,97185.75
2023-03-13T01:38:12.555Z,97171.41
2023-03-13T01:40:38.702Z,97175.91
2023-03-13T01:43:06.341Z,97165.25
2023-03-13T01:45:33.895Z,97159.94
2023-03-13T01:48:00.093Z,97136.22
2023-03-13T01:50:26.201Z,97140.50
2023-03-13T01:52:52.294Z,97133.31
2023-03-13T01:55:18.413Z,97138.63
2023-03-13T01:57:44.571Z,97132.50
2023-03-13T02:00:10.762Z,97128.00
2023-03-13T02:02:36.951Z,97114.69
2023-03-13T02:05:03.156Z,97105.88
2023-03-13T02:07:29.272Z,97109.34
2023-03-13T02:09:55.376Z,97093.38
2023-03-13T02:12:21.487Z,97090.72
2023-03-13T02:14:47.590Z,97077.41
2023-03-13T02:17:13.737Z,97067.56
2023-03-13T02:19:40.114Z,97048.13
2023-03-13T02:22:06.219Z,97059.59
2023-03-13T02:24:32.341Z,97047.31
2023-03-13T02:26:58.454Z,97042.00
2023-03-13T02:29:24.556Z,97043.59
2023-03-13T02:31:50.711Z,97026.81
2023-03-13T02:34:17.393Z,97037.47
2023-03-13T02:36:43.518Z,97018.84
2023-03-13T02:39:09.702Z,97028.69
2023-03-13T02:41:35.823Z,97010.84
2023-03-13T02:44:01.928Z,97004.72
2023-03-13T02:46:28.091Z,96996.75
2023-03-13T02:48:54.239Z,96995.69
2023-03-13T02:51:20.361Z,96978.91
2023-03-13T02:53:46.463Z,96989.56
2023-03-13T02:56:12.610Z,96987.69
2023-03-13T02:58:49.220Z,96972.56
2023-03-13T03:01:16.316Z,96970.72
2023-03-13T03:03:42.529Z,96952.28
2023-03-13T03:06:08.646Z,96960.06
2023-03-13T03:08:34.829Z,96968.84
2023-03-13T03:11:00.951Z,96957.41
2023-03-13T03:13:27.053Z,96953.09
2023-03-13T03:15:53.165Z,96943.28
2023-03-13T03:18:19.272Z,96943.28
2023-03-13T03:20:45.409Z,96941.44
2023-03-13T03:23:11.599Z,96940.63
2023-03-13T03:25:37.723Z,96950.22
2023-03-13T03:28:03.906Z,96925.44
2023-03-13T03:30:30.031Z,96927.31
2023-03-13T03:32:56.200Z,96928.13
2023-03-13T03:35:22.347Z,96932.63
2023-03-13T03:37:48.649Z,96933.44
2023-03-13T03:40:14.779Z,96911.34
2023-03-13T03:42:40.958Z,96905.19
2023-03-13T03:45:07.219Z,96921.97
2023-03-13T03:47:33.371Z,96934.25
2023-03-13T03:49:59.502Z,96909.47
2023-03-13T03:52:25.631Z,96916.66
2023-03-13T03:54:51.739Z,96925.66
2023-03-13T03:57:17.854Z,96921.97
2023-03-13T03:59:44.067Z,96929.72
2023-03-13T04:02:10.339Z,96912.13
2023-03-13T04:04:36.513Z,96906.00
2023-03-13T04:07:02.655Z,96918.47
2023-03-13T04:09:31.520Z,96900.69
2023-03-13T04:11:58.208Z,96896.16
2023-03-13T04:14:24.336Z,96918.28
2023-03-13T04:16:50.459Z,96891.88
2023-03-13T04:19:16.634Z,96869.53
2023-03-13T04:21:42.768Z,96896.16
2023-03-13T04:24:08.885Z,96914.81
2023-03-13T04:26:35.071Z,96896.16
2023-03-13T04:29:01.227Z,96891.66
2023-03-13T04:31:27.363Z,96890.84
2023-03-13T04:33:53.499Z,96905.19
2023-03-13T04:36:19.680Z,96911.34
2023-03-13T04:38:45.840Z,96898.84
2023-03-13T04:41:11.943Z,96878.56
2023-03-13T04:43:38.559Z,96888.19
2023-03-13T04:46:04.720Z,96876.72
2023-03-13T04:48:30.872Z,96903.91
2023-03-13T04:50:56.981Z,96887.13
2023-03-13T04:53:23.103Z,96888.97
2023-03-13T04:55:49.208Z,96885.53
2023-03-13T04:58:15.318Z,96874.88
2023-03-13T05:00:41.445Z,96882.84
2023-03-13T05:03:07.563Z,96877.53
2023-03-13T05:05:33.965Z,96869.53
2023-03-13T05:08:00.172Z,96875.69
2023-03-13T05:10:26.271Z,96881.00
2023-03-13T05:12:52.384Z,96881.81
2023-03-13T05:15:18.504Z,96859.69
2023-03-13T05:17:44.613Z,96842.94
2023-03-13T05:20:10.807Z,96853.56
2023-03-13T05:22:36.942Z,96837.59
2023-03-13T05:25:03.060Z,96859.69
2023-03-13T05:27:29.221Z,96851.72
2023-03-13T05:29:55.345Z,96842.13
2023-03-13T05:32:21.576Z,96857.03
2023-03-13T05:34:47.807Z,96824.28
2023-03-13T05:37:23.284Z,96815.25
2023-03-13T05:39:49.618Z,96813.41
2023-03-13T05:42:15.796Z,96834.94
2023-03-13T05:44:41.906Z,96838.41
2023-03-13T05:47:08.091Z,96819.78
2023-03-13T05:49:34.188Z,96818.97
2023-03-13T05:52:00.303Z,96838.41
2023-03-13T05:54:26.442Z,96839.22
2023-03-13T05:56:52.551Z,96837.13
2023-03-13T05:59:18.640Z,96836.34
2023-03-13T06:01:44.823Z,96840.84
2023-03-13T06:04:11.056Z,96822.22
2023-03-13T06:06:37.178Z,96823.25
2023-03-13T06:09:04.021Z,96831.00
2023-03-13T06:11:30.209Z,96843.50
2023-03-13T06:13:56.361Z,96837.13
2023-03-13T06:16:22.524Z,96848.84
2023-03-13T06:18:48.729Z,96850.66
2023-03-13T06:21:14.857Z,96850.66
2023-03-13T06:23:40.974Z,96839.81
2023-03-13T06:26:07.094Z,96821.16
2023-03-13T06:28:33.278Z,96835.28
2023-03-13T06:30:59.450Z,96842.47
2023-03-13T06:33:25.679Z,96840.38
2023-03-13T06:35:56.638Z,96838.53
2023-03-13T06:38:23.145Z,96839.34
2023-03-13T06:40:49.327Z,96835.88
2023-03-13T06:43:15.447Z,96847.56
2023-03-13T06:45:41.631Z,96831.34
2023-03-13T06:48:07.762Z,96839.34
2023-03-13T06:50:33.870Z,96832.19
2023-03-13T06:53:00.018Z,96837.50
2023-03-13T06:55:26.156Z,96826.03
2023-03-13T06:57:52.258Z,96816.41
2023-03-13T07:00:18.379Z,96819.88
2023-03-13T07:02:44.520Z,96826.03
2023-03-13T07:05:10.653Z,96839.34
2023-03-13T07:07:36.851Z,96820.47
2023-03-13T07:10:02.960Z,96828.47
2023-03-13T07:12:29.175Z,96852.44
2023-03-13T07:14:55.295Z,96853.22
2023-03-13T07:17:21.517Z,96841.78
2023-03-13T07:19:47.689Z,96845.25
2023-03-13T07:22:13.845Z,96838.31
2023-03-13T07:24:39.997Z,96845.25
2023-03-13T07:27:09.321Z,96841.56
2023-03-13T07:29:35.518Z,96818.63
2023-03-13T07:32:01.760Z,96844.22
2023-03-13T07:34:28.091Z,96851.16
2023-03-13T07:36:54.394Z,96854.88
2023-03-13T07:39:20.555Z,96840.72
2023-03-13T07:41:46.679Z,96846.88
2023-03-13T07:44:12.858Z,96845.25
2023-03-13T07:46:39.048Z,96863.06
2023-03-13T07:49:05.156Z,96862.84
2023-03-13T07:51:42.843Z,96851.38
2023-03-13T07:54:09.384Z,96846.03
2023-03-13T07:56:35.620Z,96833.56
2023-03-13T07:59:01.734Z,96824.53
2023-03-13T08:01:30.541Z,96827.19
2023-03-13T08:03:57.186Z,96825.59
2023-03-13T08:06:23.308Z,96820.25
2023-03-13T08:08:49.444Z,96805.91
2023-03-13T08:11:15.643Z,96806.94
2023-03-13T08:13:41.797Z,96801.38
2023-03-13T08:16:08.009Z,96806.69
2023-03-13T08:18:34.160Z,96792.34
2023-03-13T08:21:00.259Z,96773.94
2023-03-13T08:23:26.366Z,96793.38
2023-03-13T08:25:52.488Z,96778.25
2023-03-13T08:28:18.627Z,96780.91
2023-03-13T08:30:44.758Z,96779.84
2023-03-13T08:33:10.943Z,96785.19
2023-03-13T08:35:37.143Z,96777.19
2023-03-13T08:38:03.295Z,96785.19
2023-03-13T08:40:29.451Z,96781.72
2023-03-13T08:42:55.645Z,96777.19
2023-03-13T08:45:21.751Z,96778.00
2023-03-13T08:47:47.974Z,96765.47
2023-03-13T08:50:14.080Z,96791.88
2023-03-13T08:52:40.277Z,96785.75
2023-03-13T08:55:06.936Z,96789.44
2023-03-13T08:57:33.124Z,96792.94
2023-03-13T09:00:02.054Z,96787.63
2023-03-13T09:02:28.361Z,96793.50
2023-03-13T09:04:54.495Z,96794.34
2023-03-13T09:07:20.687Z,96787.38
2023-03-13T09:09:46.810Z,96803.34
2023-03-13T09:12:24.736Z,96804.16
2023-03-13T09:14:56.549Z,96799.88
2023-03-13T09:17:22.638Z,96797.22
2023-03-13T09:19:59.742Z,96786.56
2023-03-13T09:22:26.858Z,96810.53
2023-03-13T09:24:52.978Z,96794.34
2023-03-13T09:27:19.086Z,96797.00
2023-03-13T09:29:45.207Z,96790.84
2023-03-13T09:32:11.308Z,96798.81
2023-03-13T09:34:37.469Z,96794.34
2023-03-13T09:37:03.654Z,96799.66
2023-03-13T09:39:29.762Z,96805.78
2023-03-13T09:41:55.856Z,96799.66
2023-03-13T09:44:22.036Z,96798.59
2023-03-13T09:46:48.254Z,96784.22
2023-03-13T09:49:15.666Z,96783.44
2023-03-13T09:51:43.339Z,96775.44
2023-03-13T09:54:09.441Z,96769.31
2023-03-13T09:56:35.546Z,96771.97
2023-03-13T09:59:01.665Z,96775.44
2023-03-13T10:01:27.863Z,96764.78
2023-03-13T10:03:54.000Z,96768.25
2023-03-13T10:06:20.118Z,96764.56
2023-03-13T10:08:46.251Z,96759.25
2023-03-13T10:11:12.340Z,96769.91
2023-03-13T10:13:38.483Z,96766.19
2023-03-13T10:16:04.617Z,96760.84
2023-03-13T10:18:30.984Z,96754.72
2023-03-13T10:20:57.205Z,96753.69
2023-03-13T10:23:23.312Z,96759.03
2023-03-13T10:25:49.412Z,96743.84
2023-03-13T10:28:15.547Z,96757.38
2023-03-13T10:30:41.679Z,96741.19
2023-03-13T10:33:07.833Z,96745.47
2023-03-13T10:35:34.080Z,96756.09
2023-03-13T10:38:00.399Z,96749.97
2023-03-13T10:40:26.582Z,96731.13
2023-03-13T10:42:52.698Z,96739.91
2023-03-13T10:45:18.876Z,96735.59
2023-03-13T10:47:44.989Z,96720.47
2023-03-13T10:50:11.198Z,96722.06
2023-03-13T10:52:37.379Z,96726.59
2023-03-13T10:55:03.522Z,96718.59
2023-03-13T10:57:29.924Z,96707.69
2023-03-13T10:59:56.150Z,96721.00
2023-03-13T11:02:22.300Z,96700.53
2023-03-13T11:04:48.536Z,96686.41
2023-03-13T11:07:14.667Z,96715.47
2023-03-13T11:09:40.782Z,96700.28
2023-03-13T11:12:06.903Z,96700.28
2023-03-13T11:14:33.100Z,96696.59
2023-03-13T11:16:59.239Z,96703.53
2023-03-13T11:19:25.416Z,96705.41
2023-03-13T11:21:51.542Z,96685.69
2023-03-13T11:24:17.666Z,96683.88
2023-03-13T11:26:52.429Z,96686.53
2023-03-13T11:29:28.307Z,96685.47
2023-03-13T11:31:54.553Z,96683.63
2023-03-13T11:34:20.809Z,96679.09
2023-03-13T11:36:47.097Z,96677.47
2023-03-13T11:39:13.322Z,96665.78
2023-03-13T11:41:39.555Z,96656.97
2023-03-13T11:44:05.729Z,96662.09
2023-03-13T11:46:32.139Z,96651.66
2023-03-13T11:48:58.434Z,96631.97
2023-03-13T11:51:24.722Z,96653.03
2023-03-13T11:53:51.028Z,96637.88
2023-03-13T11:56:17.124Z,96626.41
2023-03-13T11:58:43.254Z,96632.56
2023-03-13T12:01:09.579Z,96632.56
2023-03-13T12:03:35.836Z,96625.94
2023-03-13T12:06:02.073Z,96626.97
2023-03-13T12:08:28.544Z,96616.09
2023-03-13T12:10:54.718Z,96606.47
2023-03-13T12:13:20.901Z,96618.50
2023-03-13T12:15:47.146Z,96620.94
2023-03-13T12:18:13.277Z,96605.19
2023-03-13T12:20:39.424Z,96597.19
2023-03-13T12:23:05.674Z,96595.09
2023-03-13T12:25:31.896Z,96612.16
2023-03-13T12:27:58.157Z,96605.75
2023-03-13T12:30:24.411Z,96604.72
2023-03-13T12:32:50.641Z,96594.88
2023-03-13T12:35:16.803Z,96596.75
2023-03-13T12:37:43.000Z,96577.03
2023-03-13T12:40:11.897Z,96581.34
2023-03-13T12:42:38.208Z,96593.59
2023-03-13T12:45:04.427Z,96584.00
2023-03-13T12:47:30.691Z,96579.47
2023-03-13T12:49:56.908Z,96580.28
2023-03-13T12:52:23.070Z,96573.88
2023-03-13T12:54:49.427Z,96573.66
2023-03-13T12:57:15.676Z,96572.84
2023-03-13T12:59:41.816Z,96566.72
2023-03-13T13:02:07.995Z,96570.19
2023-03-13T13:04:34.204Z,96566.25
2023-03-13T13:07:00.872Z,96548.63
2023-03-13T13:09:27.108Z,96553.72
2023-03-13T13:11:53.343Z,96554.78
2023-03-13T13:14:19.597Z,96561.72
2023-03-13T13:16:45.753Z,96552.69
2023-03-13T13:19:12.233Z,96546.53
2023-03-13T13:21:38.482Z,96523.13
2023-03-13T13:24:04.688Z,96544.44
2023-03-13T13:26:30.824Z,96542.59
2023-03-13T13:28:56.979Z,96530.91
2023-03-13T13:31:23.327Z,96535.16
2023-03-13T13:33:49.669Z,96524.50
2023-03-13T13:36:16.374Z,96527.16
2023-03-13T13:38:42.715Z,96527.97
2023-03-13T13:41:08.938Z,96514.66
2023-03-13T13:43:35.137Z,96504.81
2023-03-13T13:46:01.348Z,96493.91
2023-03-13T13:48:27.484Z,96503.53
2023-03-13T13:50:53.717Z,96515.22
2023-03-13T13:53:19.843Z,96512.31
2023-03-13T13:55:46.097Z,96512.31
2023-03-13T13:58:12.254Z,96494.47
2023-03-13T14:00:38.416Z,96483.81
2023-03-13T14:03:04.559Z,96497.16
2023-03-13T14:05:30.981Z,96497.94
2023-03-13T14:07:57.184Z,96469.47
2023-03-13T14:10:23.347Z,96488.13
2023-03-13T14:12:52.462Z,96452.41
2023-03-13T14:15:18.621Z,96454.28
2023-03-13T14:17:44.814Z,96458.56
2023-03-13T14:20:11.200Z,96464.94
2023-03-13T14:22:37.460Z,96465.50
2023-03-13T14:25:03.693Z,96463.41
2023-03-13T14:27:30.077Z,96451.13
2023-03-13T14:29:56.337Z,96458.09
2023-03-13T14:32:22.553Z,96458.88
2023-03-13T14:34:48.748Z,96470.34
2023-03-13T14:37:18.217Z,96452.50
2023-03-13T14:39:50.069Z,96453.56
2023-03-13T14:42:16.293Z,96454.34
2023-03-13T14:44:42.522Z,96444.50
2023-03-13T14:47:08.668Z,96440.81
2023-03-13T14:49:34.968Z,96437.31
2023-03-13T14:52:01.124Z,96432.81
2023-03-13T14:54:27.211Z,96428.28
2023-03-13T14:56:53.358Z,96414.97
2023-03-13T14:59:19.475Z,96421.88
2023-03-13T15:01:45.607Z,96412.03
2023-03-13T15:04:11.786Z,96413.66
2023-03-13T15:06:37.974Z,96409.13
2023-03-13T15:09:04.109Z,96402.19
2023-03-13T15:11:30.741Z,96393.16
2023-03-13T15:13:56.876Z,96388.63
2023-03-13T15:16:23.157Z,96372.63
2023-03-13T15:18:49.349Z,96368.34
2023-03-13T15:21:15.470Z,96366.50
2023-03-13T15:23:41.571Z,96371.81
2023-03-13T15:26:07.726Z,96375.28
2023-03-13T15:28:33.815Z,96373.44
2023-03-13T15:30:59.985Z,96365.69
2023-03-13T15:33:26.163Z,96376.91
2023-03-13T15:35:52.356Z,96369.72
2023-03-13T15:38:18.532Z,96371.31
2023-03-13T15:40:44.676Z,96357.19
2023-03-13T15:43:10.779Z,96349.78
2023-03-13T15:45:36.901Z,96340.97
2023-03-13T15:48:03.050Z,96346.31
2023-03-13T15:50:29.152Z,96327.66
2023-03-13T15:52:55.633Z,96322.56
2023-03-13T15:55:21.823Z,96328.44
2023-03-13T15:57:47.947Z,96321.53
2023-03-13T16:00:14.127Z,96319.66
2023-03-13T16:02:40.336Z,96300.19
2023-03-13T16:05:08.342Z,96315.69
2023-03-13T16:07:35.730Z,96309.78
2023-03-13T16:10:01.883Z,96309.56
2023-03-13T16:12:27.978Z,96304.22
2023-03-13T16:14:54.098Z,96296.22
2023-03-13T16:17:20.370Z,96290.06
2023-03-13T16:19:46.556Z,96288.25
2023-03-13T16:22:12.712Z,96273.28
2023-03-13T16:24:38.952Z,96274.09
2023-03-13T16:27:05.061Z,96270.38
2023-03-13T16:29:31.261Z,96263.19
2023-03-13T16:31:57.930Z,96266.66
2023-03-13T16:34:24.057Z,96257.63
2023-03-13T16:36:50.173Z,96260.28
2023-03-13T16:39:16.298Z,96254.97
2023-03-13T16:41:42.411Z,96261.91
2023-03-13T16:44:08.518Z,96255.78
2023-03-13T16:46:34.991Z,96257.38
2023-03-13T16:49:01.139Z,96253.13
2023-03-13T16:51:27.333Z,96249.38
2023-03-13T16:53:53.540Z,96231.56
2023-03-13T16:56:19.749Z,96232.00
2023-03-13T16:58:45.932Z,96233.41
2023-03-13T17:01:12.166Z,96228.06
2023-03-13T17:03:38.296Z,96222.75
2023-03-13T17:06:04.408Z,96219.84
2023-03-13T17:08:30.536Z,96223.56
2023-03-13T17:10:56.684Z,96227.81
2023-03-13T17:13:22.861Z,96241.16
2023-03-13T17:15:49.550Z,96231.28
2023-03-13T17:18:15.738Z,96227.81
2023-03-13T17:20:41.844Z,96233.97
2023-03-13T17:23:07.982Z,96243.59
2023-03-13T17:25:34.087Z,96253.41
2023-03-13T17:28:00.268Z,96243.59
2023-03-13T17:30:26.408Z,96240.91
2023-03-13T17:32:52.583Z,96249.72
2023-03-13T17:35:18.787Z,96256.91
2023-03-13T17:37:45.240Z,96267.31
2023-03-13T17:40:11.431Z,96275.31
2023-03-13T17:42:37.553Z,96281.44
2023-03-13T17:45:04.199Z,96268.09
2023-03-13T17:47:30.297Z,96245.19
2023-03-13T17:49:56.393Z,96237.97
2023-03-13T17:52:22.515Z,96241.44
2023-03-13T17:54:48.690Z,96237.97
2023-03-13T17:57:14.833Z,96231.63
2023-03-13T17:59:41.115Z,96234.28
2023-03-13T18:02:07.299Z,96232.66
2023-03-13T18:04:33.498Z,96227.09
2023-03-13T18:06:59.651Z,96220.13
2023-03-13T18:09:25.778Z,96240.41
2023-03-13T18:11:51.917Z,96239.63
2023-03-13T18:14:18.146Z,96229.75
2023-03-13T18:16:58.653Z,96231.34
2023-03-13T18:19:25.071Z,96219.66
2023-03-13T18:21:51.201Z,96223.34
2023-03-13T18:24:17.507Z,96217.78
2023-03-13T18:26:43.675Z,96208.44
2023-03-13T18:29:09.853Z,96212.69
2023-03-13T18:31:36.197Z,96211.66
2023-03-13T18:34:02.489Z,96209.78
2023-03-13T18:36:28.644Z,96205.25
2023-03-13T18:38:54.737Z,96205.53
2023-03-13T18:41:21.122Z,96215.13
2023-03-13T18:43:47.376Z,96220.44
2023-03-13T18:46:13.526Z,96221.25
2023-03-13T18:48:39.752Z,96205.00
2023-03-13T18:51:05.898Z,96206.06
2023-03-13T18:53:32.034Z,96198.06
2023-03-13T18:55:58.237Z,96205.00
2023-03-13T18:58:24.413Z,96210.34
2023-03-13T19:00:50.688Z,96214.59
2023-03-13T19:03:16.899Z,96222.88
2023-03-13T19:05:43.035Z,96238.03
2023-03-13T19:08:09.196Z,96231.66
2023-03-13T19:10:35.385Z,96216.72
2023-03-13T19:13:01.556Z,96210.59
2023-03-13T19:15:27.699Z,96204.22
2023-03-13T19:17:53.934Z,96217.53
2023-03-13T19:20:20.108Z,96206.88
2023-03-13T19:22:46.388Z,96207.91
2023-03-13T19:25:12.822Z,96192.72
2023-03-13T19:27:38.989Z,96189.25
2023-03-13T19:30:05.200Z,96186.59
2023-03-13T19:32:31.370Z,96197.25
2023-03-13T19:34:57.523Z,96196.22
2023-03-13T19:37:23.698Z,96190.06
2023-03-13T19:39:49.908Z,96189.81
2023-03-13T19:42:16.051Z,96165.03
2023-03-13T19:44:42.266Z,96174.63
2023-03-13T19:47:08.453Z,96165.03
2023-03-13T19:49:34.544Z,96164.22
2023-03-13T19:52:00.747Z,96151.69
2023-03-13T19:54:26.908Z,96135.44
2023-03-13T19:56:53.056Z,96141.03
2023-03-13T19:59:19.339Z,96139.16
2023-03-13T20:01:45.554Z,96143.44
2023-03-13T20:04:11.723Z,96124.78
2023-03-13T20:06:37.871Z,96130.09
2023-03-13T20:09:04.016Z,96130.94
2023-03-13T20:11:30.134Z,96143.44
2023-03-13T20:13:56.272Z,96145.84
2023-03-13T20:16:22.448Z,96153.06
2023-03-13T20:18:48.562Z,96147.72
2023-03-13T20:21:14.709Z,96149.59
2023-03-13T20:23:40.888Z,96158.38
2023-03-13T20:26:07.024Z,96156.53
2023-03-13T20:28:33.119Z,96157.59
2023-03-13T20:30:59.329Z,96157.59
2023-03-13T20:33:25.526Z,96148.53
2023-03-13T20:35:51.713Z,96159.97
2023-03-13T20:38:18.216Z,96153.06
2023-03-13T20:40:44.379Z,96149.31
2023-03-13T20:43:10.608Z,96142.41
2023-03-13T20:45:36.736Z,96153.06
2023-03-13T20:48:02.837Z,96145.84
2023-03-13T20:50:29.001Z,96138.66
2023-03-13T20:52:55.218Z,96127.19
2023-03-13T20:55:21.323Z,96137.63
2023-03-13T20:57:47.424Z,96136.00
2023-03-13T21:00:13.624Z,96129.88
2023-03-13T21:02:39.763Z,96128.00
2023-03-13T21:05:05.937Z,96128.00
2023-03-13T21:07:32.101Z,96133.31
2023-03-13T21:09:58.224Z,96130.66
2023-03-13T21:12:24.388Z,96129.63
2023-03-13T21:14:50.499Z,96128.78
2023-03-13T21:17:16.597Z,96130.41
2023-03-13T21:19:42.707Z,96133.09
2023-03-13T21:22:08.886Z,96125.09
2023-03-13T21:24:35.049Z,96124.28
2023-03-13T21:27:01.145Z,96126.97
2023-03-13T21:29:27.364Z,96124.28
2023-03-13T21:31:53.520Z,96123.47
2023-03-13T21:34:19.660Z,96105.63
2023-03-13T21:36:46.178Z,96091.47
2023-03-13T21:39:12.305Z,96095.75
2023-03-13T21:41:38.407Z,96078.16
2023-03-13T21:44:04.535Z,96066.44
2023-03-13T21:46:30.636Z,96058.69
2023-03-13T21:48:56.828Z,96054.72
2023-03-13T21:51:23.029Z,96071.78
2023-03-13T21:53:49.129Z,96079.53
2023-03-13T21:56:15.294Z,96062.72
2023-03-13T21:58:41.433Z,96066.19
2023-03-13T22:01:07.593Z,96076.03
2023-03-13T22:03:33.792Z,96077.66
2023-03-13T22:05:59.994Z,96079.53
2023-03-13T22:08:26.114Z,96079.53
2023-03-13T22:10:52.350Z,96101.91
2023-03-13T22:13:18.538Z,96097.13
2023-03-13T22:15:44.644Z,96085.66
2023-03-13T22:18:10.735Z,96089.38
2023-03-13T22:20:36.872Z,96103.53
2023-03-13T22:23:03.050Z,96100.84
2023-03-13T22:25:29.172Z,96099.00
2023-03-13T22:27:55.373Z,96116.84
2023-03-13T22:30:21.504Z,96135.25
2023-03-13T22:32:47.635Z,96150.44
2023-03-13T22:35:13.978Z,96148.84
2023-03-13T22:37:40.149Z,96154.97
2023-03-13T22:40:06.331Z,96137.09
2023-03-13T22:42:32.529Z,96116.03
2023-03-13T22:44:58.668Z,96117.09
2023-03-13T22:47:24.846Z,96121.34
2023-03-13T22:49:51.567Z,96120.56
2023-03-13T22:52:17.700Z,96122.44
2023-03-13T22:54:46.729Z,96129.34
2023-03-13T22:57:12.984Z,96122.19
2023-03-13T22:59:39.176Z,96126.69
2023-03-13T23:02:05.340Z,96117.88
2023-03-13T23:04:31.466Z,96113.34
2023-03-13T23:06:57.578Z,96119.53
2023-03-13T23:09:23.742Z,96107.22
2023-03-13T23:11:49.883Z,96093.91
2023-03-13T23:14:16.064Z,96070.69
2023-03-13T23:16:42.398Z,96076.03
2023-03-13T23:19:08.586Z,96081.38
2023-03-13T23:21:34.716Z,96087.53
2023-03-13T23:24:00.837Z,96084.03
2023-03-13T23:26:27.023Z,96090.19
2023-03-13T23:28:53.141Z,96073.38
2023-03-13T23:31:19.299Z,96058.19
2023-03-13T23:33:45.445Z,96045.13
2023-03-13T23:36:11.620Z,96052.88
2023-03-13T23:38:37.787Z,96063.53
2023-03-13T23:41:03.973Z,96059.78
2023-03-13T23:43:30.184Z,96052.03
2023-03-13T23:45:56.305Z,96048.34
2023-03-13T23:48:22.520Z,96056.56
2023-03-13T23:50:48.650Z,96037.13
2023-03-13T23:53:14.823Z,96051.25
2023-03-13T23:55:40.970Z,96068.03
2023-03-13T23:58:07.144Z,96052.03
